Time;durP1;ratioP1;P1;durP2;ratioP2;P2;SDS_P1;SDS_P2;PMS_P1;PMS_P2;Temp;Humidity;BMP_temperature;BMP_pressure;BME280_temperature;BME280_humidity;BME280_pressure;Samples;Min_cycle;Max_cycle;Signal;HPM_P1;HPM_P2
2022/01/07 00:00:05;;;;;;;;;;;;;;;0.22;100.00;100119.22;8364601;28;20506;-79
2022/01/07 00:04:12;;;;;;;;;;;;;;;0.21;100.00;100118.38;8362744;28;19927;-79
2022/01/07 00:08:15;;;;;;;;;;;;;;;0.21;100.00;100114.81;8359859;28;20304;-79
2022/01/07 00:12:21;;;;;;;;;;;;;;;0.18;100.00;100105.19;8373554;28;19981;-79
2022/01/07 00:16:24;;;;;;;;;;;;;;;0.17;100.00;100105.34;8378144;28;19962;-79
2022/01/07 00:20:26;;;;;;;;;;;;;;;0.18;100.00;100093.50;8379080;28;19943;-79
2022/01/07 00:24:28;;;;;;;;;;;;;;;0.18;100.00;100094.34;8388351;28;19946;-79
2022/01/07 00:28:29;;;;;;;;;;;;;;;0.18;100.00;100088.91;8374029;28;19978;-79
2022/01/07 00:32:31;;;;;;;;;;;;;;;0.20;100.00;100091.44;8360531;28;19971;-79
2022/01/07 00:36:32;;;;;;;;;;;;;;;0.17;100.00;100089.06;8358150;28;19921;-79
2022/01/07 00:40:34;;;;;;;;;;;;;;;0.17;100.00;100097.19;8370219;28;20438;-79
2022/01/07 00:44:35;;;;;;;;;;;;;;;0.16;100.00;100099.06;8355877;28;19993;-79
2022/01/07 00:48:36;;;;;;;;;;;;;;;0.16;100.00;100087.41;8374798;28;19927;-79
2022/01/07 00:52:38;;;;;;;;;;;;;;;0.15;100.00;100082.97;8357015;28;19975;-77
2022/01/07 00:56:39;;;;;;;;;;;;;;;0.17;100.00;100081.78;8366200;28;19925;-78
2022/01/07 01:00:41;;;;;;;;;;;;;;;0.20;100.00;100083.31;8358201;28;20875;-79
2022/01/07 01:04:43;;;;;;;;;;;;;;;0.21;100.00;100082.31;8368034;28;19924;-79
2022/01/07 01:08:46;;;;;;;;;;;;;;;0.23;100.00;100081.06;8369239;28;20012;-78
2022/01/07 01:12:48;;;;;;;;;;;;;;;0.29;100.00;100084.09;8355885;28;19966;-79
2022/01/07 01:16:51;;;;;;;;;;;;;;;0.32;100.00;100090.00;8360538;28;20001;-79
2022/01/07 01:20:53;;;;;;;;;;;;;;;0.30;100.00;100096.63;8362152;28;19921;-78
2022/01/07 01:24:54;;;;;;;;;;;;;;;0.31;100.00;100092.91;8366415;28;19928;-78
2022/01/07 01:28:56;;;;;;;;;;;;;;;0.33;100.00;100086.31;8365046;28;19925;-79
2022/01/07 01:32:57;;;;;;;;;;;;;;;0.36;100.00;100080.53;8357625;28;19921;-79
2022/01/07 01:36:59;;;;;;;;;;;;;;;0.44;100.00;100075.03;8361583;28;19943;-78
2022/01/07 01:41:00;;;;;;;;;;;;;;;0.51;100.00;100068.94;8367689;28;20452;-78
2022/01/07 01:45:02;;;;;;;;;;;;;;;0.58;100.00;100067.19;8377160;28;19940;-79
2022/01/07 01:49:04;;;;;;;;;;;;;;;0.64;100.00;100058.34;8363530;28;19983;-78
2022/01/07 01:53:06;;;;;;;;;;;;;;;0.66;100.00;100059.00;8377468;28;20021;-79
2022/01/07 01:57:07;;;;;;;;;;;;;;;0.67;100.00;100057.97;8375771;28;19969;-79
2022/01/07 02:01:09;;;;;;;;;;;;;;;0.68;100.00;100043.38;8365946;28;19973;-79
2022/01/07 02:05:10;;;;;;;;;;;;;;;0.65;100.00;100046.44;8355167;28;19924;-80
2022/01/07 02:09:12;;;;;;;;;;;;;;;0.67;100.00;100039.81;8367631;28;20440;-79
2022/01/07 02:13:17;;;;;;;;;;;;;;;0.65;100.00;100030.19;8359976;28;19982;-79
2022/01/07 02:17:20;;;;;;;;;;;;;;;0.61;100.00;100032.41;8369755;28;19928;-79
2022/01/07 02:21:21;;;;;;;;;;;;;;;0.57;100.00;100030.25;8379861;28;20405;-79
2022/01/07 02:25:24;;;;;;;;;;;;;;;0.56;100.00;100020.41;8364788;28;19924;-79
2022/01/07 02:29:26;;;;;;;;;;;;;;;0.52;100.00;100005.53;8364866;28;19928;-79
2022/01/07 02:33:27;;;;;;;;;;;;;;;0.49;100.00;100005.91;8364093;28;19944;-80
2022/01/07 02:37:29;;;;;;;;;;;;;;;0.49;100.00;99997.75;8379408;28;19924;-79
2022/01/07 02:41:31;;;;;;;;;;;;;;;0.55;100.00;99999.75;8363127;28;19932;-78
2022/01/07 02:45:32;;;;;;;;;;;;;;;0.54;100.00;99993.50;8366828;28;19921;-79
2022/01/07 02:49:34;;;;;;;;;;;;;;;0.50;100.00;99996.72;8361111;28;19965;-79
2022/01/07 02:53:36;;;;;;;;;;;;;;;0.51;100.00;100007.41;8363908;28;19924;-79
2022/01/07 02:57:37;;;;;;;;;;;;;;;0.51;100.00;99996.56;8368815;28;20001;-78
2022/01/07 03:01:39;;;;;;;;;;;;;;;0.55;100.00;99997.88;8371279;28;19924;-79
2022/01/07 03:05:42;;;;;;;;;;;;;;;0.62;100.00;99987.97;8376671;28;19925;-78
2022/01/07 03:09:43;;;;;;;;;;;;;;;0.67;100.00;99980.16;8398434;28;20348;-78
2022/01/07 03:13:45;;;;;;;;;;;;;;;0.67;100.00;99976.59;8367798;28;20266;-79
2022/01/07 03:17:47;;;;;;;;;;;;;;;0.66;100.00;99966.78;8366601;28;19947;-79
2022/01/07 03:21:48;;;;;;;;;;;;;;;0.62;100.00;99962.75;8362309;28;19921;-79
2022/01/07 03:25:49;;;;;;;;;;;;;;;0.67;100.00;99963.88;8370382;28;20133;-79
2022/01/07 03:29:51;;;;;;;;;;;;;;;0.67;100.00;99957.63;8369601;28;19935;-79
2022/01/07 03:33:52;;;;;;;;;;;;;;;0.69;100.00;99961.00;8379937;28;19925;-78
2022/01/07 03:37:53;;;;;;;;;;;;;;;0.77;100.00;99943.81;8361104;28;20348;-79
2022/01/07 03:41:55;;;;;;;;;;;;;;;0.76;100.00;99948.38;8371585;28;19921;-78
2022/01/07 03:45:56;;;;;;;;;;;;;;;0.80;100.00;99946.97;8383410;28;19924;-79
2022/01/07 03:49:58;;;;;;;;;;;;;;;0.82;100.00;99944.09;8356523;28;19920;-78
2022/01/07 03:53:59;;;;;;;;;;;;;;;0.79;100.00;99939.03;8361029;28;19924;-79
2022/01/07 03:58:00;;;;;;;;;;;;;;;0.79;100.00;99934.47;8360485;28;19929;-78
2022/01/07 04:02:02;;;;;;;;;;;;;;;0.83;100.00;99949.38;8356166;28;19977;-79
2022/01/07 04:06:04;;;;;;;;;;;;;;;0.86;100.00;99943.56;8348595;28;19925;-78
2022/01/07 04:10:05;;;;;;;;;;;;;;;0.83;100.00;99946.66;8364358;28;19921;-79
2022/01/07 04:14:06;;;;;;;;;;;;;;;0.85;100.00;99950.00;8361418;28;19927;-78
2022/01/07 04:18:08;;;;;;;;;;;;;;;0.80;100.00;99929.88;8359696;28;19931;-78
2022/01/07 04:22:09;;;;;;;;;;;;;;;0.72;100.00;99930.81;8361727;28;19925;-79
2022/01/07 04:26:11;;;;;;;;;;;;;;;0.68;100.00;99927.63;8395451;28;19929;-78
2022/01/07 04:30:13;;;;;;;;;;;;;;;0.68;100.00;99938.47;8361105;28;19920;-78
2022/01/07 04:34:15;;;;;;;;;;;;;;;0.66;100.00;99936.97;8380560;28;19977;-78
2022/01/07 04:38:16;;;;;;;;;;;;;;;0.64;100.00;99944.44;8366114;28;19928;-78
2022/01/07 04:42:17;;;;;;;;;;;;;;;0.62;100.00;99944.59;8366455;28;19924;-78
2022/01/07 04:46:19;;;;;;;;;;;;;;;0.62;100.00;99932.91;8369286;28;19920;-79
2022/01/07 04:50:22;;;;;;;;;;;;;;;0.63;100.00;99929.19;8376123;28;19924;-78
2022/01/07 04:54:23;;;;;;;;;;;;;;;0.57;100.00;99929.94;8372464;28;19925;-79
2022/01/07 04:58:25;;;;;;;;;;;;;;;0.53;100.00;99934.84;8380967;28;19921;-78
2022/01/07 05:02:27;;;;;;;;;;;;;;;0.52;100.00;99921.47;8371604;28;19924;-79
2022/01/07 05:10:42;;;;;;;;;;;;;;;0.35;100.00;99913.47;8370842;28;19924;-78
2022/01/07 05:14:44;;;;;;;;;;;;;;;0.42;100.00;99919.03;8360943;28;20282;-78
2022/01/07 05:18:45;;;;;;;;;;;;;;;0.42;100.00;99914.44;8353390;28;20084;-78
2022/01/07 05:22:48;;;;;;;;;;;;;;;0.45;100.00;99897.81;8361353;28;19947;-78
2022/01/07 05:26:49;;;;;;;;;;;;;;;0.45;100.00;99892.41;8355201;28;19942;-78
2022/01/07 05:30:51;;;;;;;;;;;;;;;0.51;100.00;99889.97;8369176;28;19928;-78
2022/01/07 05:34:52;;;;;;;;;;;;;;;0.57;100.00;99897.38;8367635;28;20400;-78
2022/01/07 05:38:54;;;;;;;;;;;;;;;0.60;100.00;99886.16;8366018;28;19963;-79
2022/01/07 05:42:55;;;;;;;;;;;;;;;0.58;100.00;99882.78;8375162;28;19920;-79
2022/01/07 05:46:56;;;;;;;;;;;;;;;0.59;100.00;99868.19;8360784;28;20064;-79
2022/01/07 05:50:58;;;;;;;;;;;;;;;0.55;100.00;99859.59;8359616;28;19925;-78
2022/01/07 05:54:59;;;;;;;;;;;;;;;0.57;100.00;99870.28;8362886;28;19928;-78
2022/01/07 05:59:00;;;;;;;;;;;;;;;0.64;100.00;99863.06;8367908;28;19983;-79
2022/01/07 06:03:02;;;;;;;;;;;;;;;0.68;100.00;99854.41;8377872;28;19924;-78
2022/01/07 06:07:04;;;;;;;;;;;;;;;0.82;100.00;99858.13;8374945;28;20326;-78
2022/01/07 06:11:05;;;;;;;;;;;;;;;0.87;100.00;99860.31;8389473;28;20053;-79
2022/01/07 06:15:07;;;;;;;;;;;;;;;0.79;100.00;99858.50;8369419;28;20033;-78
2022/01/07 06:19:08;;;;;;;;;;;;;;;0.83;100.00;99848.13;8355829;28;19943;-77
2022/01/07 06:23:10;;;;;;;;;;;;;;;0.89;100.00;99859.09;8369675;28;20274;-77
2022/01/07 06:27:11;;;;;;;;;;;;;;;0.85;100.00;99844.19;8373646;28;20460;-78
2022/01/07 06:31:19;;;;;;;;;;;;;;;0.85;100.00;99851.50;8363550;28;20335;-78
2022/01/07 06:35:21;;;;;;;;;;;;;;;0.82;100.00;99847.28;8356064;28;20011;-79
2022/01/07 06:39:24;;;;;;;;;;;;;;;0.69;100.00;99849.81;8356811;28;20015;-78
2022/01/07 06:43:27;;;;;;;;;;;;;;;0.72;100.00;99846.72;8371303;28;19924;-79
2022/01/07 06:47:29;;;;;;;;;;;;;;;0.73;100.00;99839.44;8372854;28;19960;-78
2022/01/07 06:51:31;;;;;;;;;;;;;;;0.68;100.00;99839.97;8361102;28;19924;-78
2022/01/07 06:55:33;;;;;;;;;;;;;;;0.78;100.00;99835.13;8372071;28;19921;-78
2022/01/07 06:59:34;;;;;;;;;;;;;;;0.78;100.00;99832.41;8379248;28;19977;-78
2022/01/07 07:03:39;;;;;;;;;;;;;;;0.82;100.00;99835.59;8364780;28;19932;-79
2022/01/07 07:07:41;;;;;;;;;;;;;;;0.94;100.00;99839.53;8381349;28;19950;-79
2022/01/07 07:11:43;;;;;;;;;;;;;;;0.99;100.00;99820.81;8385623;28;19924;-79
2022/01/07 07:15:45;;;;;;;;;;;;;;;1.02;100.00;99825.03;8361661;28;20415;-78
2022/01/07 07:19:47;;;;;;;;;;;;;;;1.15;99.80;99841.50;8351627;28;19931;-79
2022/01/07 07:23:49;;;;;;;;;;;;;;;1.23;99.04;99846.81;8365053;28;19920;-78
2022/01/07 07:27:51;;;;;;;;;;;;;;;1.22;98.01;99834.28;8378209;28;19973;-78
2022/01/07 07:31:56;;;;;;;;;;;;;;;1.30;97.72;99846.91;8365062;28;20381;-78
2022/01/07 07:40:18;;;;;;;;;;;;;;;1.32;98.72;99845.69;8374916;28;19921;-78
2022/01/07 07:44:23;;;;;;;;;;;;;;;1.22;100.00;99853.28;8368745;28;19920;-79
2022/01/07 07:48:26;;;;;;;;;;;;;;;1.10;100.00;99838.47;8363353;28;19924;-78
2022/01/07 07:52:28;;;;;;;;;;;;;;;1.07;100.00;99849.72;8368379;28;19920;-79
2022/01/07 07:56:34;;;;;;;;;;;;;;;1.05;100.00;99839.06;8365790;28;19920;-77
2022/01/07 08:00:40;;;;;;;;;;;;;;;1.00;100.00;99836.06;8365078;28;19943;-78
2022/01/07 08:04:41;;;;;;;;;;;;;;;0.99;100.00;99834.38;8353472;28;19932;-78
2022/01/07 08:08:43;;;;;;;;;;;;;;;1.01;100.00;99831.47;8365750;28;19932;-77
2022/01/07 08:13:24;;;;;;;;;;;;;;;1.07;100.00;99831.59;8363217;28;20610;-77
2022/01/07 08:17:12;;;;;;;;;;;;;;;0.99;100.00;99818.09;8358273;28;19994;-78
2022/01/07 08:21:13;;;;;;;;;;;;;;;0.95;100.00;99824.09;8357746;28;19924;-78
2022/01/07 08:25:41;;;;;;;;;;;;;;;0.87;100.00;99819.63;8380608;28;19931;-78
2022/01/07 08:29:43;;;;;;;;;;;;;;;0.97;100.00;99805.75;8355701;28;20528;-79
2022/01/07 08:38:05;;;;;;;;;;;;;;;0.80;100.00;99799.66;8363818;28;19928;-77
2022/01/07 08:42:07;;;;;;;;;;;;;;;0.85;100.00;99798.06;8357357;28;20022;-78
2022/01/07 08:46:09;;;;;;;;;;;;;;;0.73;100.00;99805.00;8358295;28;19928;-78
2022/01/07 08:50:13;;;;;;;;;;;;;;;0.77;100.00;99794.63;8372127;28;20377;-80
2022/01/07 08:54:15;;;;;;;;;;;;;;;0.77;100.00;99789.19;8367810;28;20397;-80
2022/01/07 08:58:23;;;;;;;;;;;;;;;0.82;100.00;99789.47;8340265;28;19931;-80
2022/01/07 09:02:24;;;;;;;;;;;;;;;0.83;100.00;99783.88;8372346;28;19924;-77
2022/01/07 09:06:27;;;;;;;;;;;;;;;0.80;100.00;99780.69;8367546;28;19921;-79
2022/01/07 09:10:30;;;;;;;;;;;;;;;0.84;100.00;99774.69;8375548;28;19920;-78
2022/01/07 09:14:34;;;;;;;;;;;;;;;0.79;100.00;99771.69;8354215;28;20356;-78
2022/01/07 09:18:36;;;;;;;;;;;;;;;0.88;100.00;99773.28;8359115;28;19924;-79
2022/01/07 09:22:45;;;;;;;;;;;;;;;0.83;100.00;99774.88;8345977;28;19924;-79
2022/01/07 09:26:48;;;;;;;;;;;;;;;0.79;100.00;99771.69;8346911;28;19943;-78
2022/01/07 09:30:50;;;;;;;;;;;;;;;0.99;100.00;99768.44;8365271;28;19974;-78
2022/01/07 09:34:52;;;;;;;;;;;;;;;0.96;100.00;99769.66;8355831;28;19978;-78
2022/01/07 09:38:54;;;;;;;;;;;;;;;1.02;100.00;99781.63;8378002;28;19959;-77
2022/01/07 09:43:00;;;;;;;;;;;;;;;1.06;100.00;99772.91;8369381;28;19946;-77
2022/01/07 09:47:02;;;;;;;;;;;;;;;1.09;100.00;99772.50;8374327;28;19932;-77
2022/01/07 09:51:03;;;;;;;;;;;;;;;1.00;100.00;99764.69;8355598;28;20352;-81
2022/01/07 09:55:06;;;;;;;;;;;;;;;0.84;100.00;99755.72;8363293;28;19931;-79
2022/01/07 09:59:08;;;;;;;;;;;;;;;0.77;100.00;99756.66;8357078;28;19921;-80
2022/01/07 10:03:18;;;;;;;;;;;;;;;0.70;100.00;99766.56;8378209;28;19921;-79
2022/01/07 10:07:22;;;;;;;;;;;;;;;0.71;100.00;99751.97;8357481;28;19932;-79
2022/01/07 10:12:00;;;;;;;;;;;;;;;0.79;100.00;99754.59;8358626;28;19928;-80
2022/01/07 10:16:12;;;;;;;;;;;;;;;0.90;100.00;99748.69;8339771;28;20447;-79
2022/01/07 10:20:26;;;;;;;;;;;;;;;1.00;100.00;99746.53;8364202;28;20011;-80
2022/01/07 10:24:30;;;;;;;;;;;;;;;1.08;100.00;99751.00;8371807;28;19986;-81
2022/01/07 10:28:33;;;;;;;;;;;;;;;1.05;100.00;99743.25;8362897;28;19993;-80
2022/01/07 10:32:38;;;;;;;;;;;;;;;1.01;100.00;99736.50;8363975;28;19929;-80
2022/01/07 10:36:39;;;;;;;;;;;;;;;1.05;100.00;99719.66;8355336;28;19966;-78
2022/01/07 10:40:41;;;;;;;;;;;;;;;1.10;100.00;99709.09;8357973;28;19921;-78
2022/01/07 10:45:00;;;;;;;;;;;;;;;1.20;100.00;99711.50;8360122;28;20012;-78
2022/01/07 10:49:05;;;;;;;;;;;;;;;1.32;100.00;99712.66;8349703;28;19960;-79
2022/01/07 10:53:19;;;;;;;;;;;;;;;1.20;100.00;99716.09;8356866;28;20047;-77
2022/01/07 10:57:34;;;;;;;;;;;;;;;1.21;100.00;99715.88;8366725;28;19928;-77
2022/01/07 11:01:54;;;;;;;;;;;;;;;1.27;100.00;99704.25;8371227;28;19964;-77
2022/01/07 11:05:55;;;;;;;;;;;;;;;1.26;100.00;99697.16;8368607;28;19921;-78
2022/01/07 11:09:57;;;;;;;;;;;;;;;1.33;100.00;99698.03;8374154;28;19924;-78
2022/01/07 11:14:07;;;;;;;;;;;;;;;1.35;100.00;99693.28;8356399;28;19974;-79
2022/01/07 11:18:08;;;;;;;;;;;;;;;1.42;100.00;99687.06;8343650;28;19929;-77
2022/01/07 11:22:11;;;;;;;;;;;;;;;1.35;100.00;99682.41;8350220;28;19924;-78
2022/01/07 11:26:16;;;;;;;;;;;;;;;1.39;100.00;99677.44;8352529;28;19928;-78
2022/01/07 11:30:24;;;;;;;;;;;;;;;1.39;100.00;99673.88;8356094;28;20386;-77
2022/01/07 11:34:32;;;;;;;;;;;;;;;1.44;100.00;99660.56;8355414;28;19927;-78
2022/01/07 11:38:44;;;;;;;;;;;;;;;1.57;100.00;99647.09;8358738;28;19921;-78
2022/01/07 11:42:47;;;;;;;;;;;;;;;1.55;100.00;99649.19;8365494;28;20377;-78
2022/01/07 11:46:49;;;;;;;;;;;;;;;1.56;100.00;99650.88;8358318;28;19966;-77
2022/01/07 11:50:58;;;;;;;;;;;;;;;1.47;100.00;99644.72;8364203;28;19944;-78
2022/01/07 11:55:19;;;;;;;;;;;;;;;1.59;100.00;99647.75;8357702;28;19924;-77
2022/01/07 11:59:24;;;;;;;;;;;;;;;1.64;100.00;99637.16;8363490;28;20015;-77
2022/01/07 12:03:39;;;;;;;;;;;;;;;1.68;100.00;99641.13;8359985;28;19966;-78
2022/01/07 12:07:49;;;;;;;;;;;;;;;1.77;100.00;99647.28;8365756;28;19929;-77
2022/01/07 12:11:54;;;;;;;;;;;;;;;1.85;100.00;99646.31;8335072;28;19975;-77
2022/01/07 12:15:57;;;;;;;;;;;;;;;1.85;100.00;99647.13;8377319;28;19921;-79
2022/01/07 12:20:22;;;;;;;;;;;;;;;1.76;100.00;99634.75;8371722;28;19950;-79
2022/01/07 12:24:25;;;;;;;;;;;;;;;1.69;100.00;99631.13;8359378;28;19931;-79
2022/01/07 12:28:39;;;;;;;;;;;;;;;1.66;100.00;99620.63;8369614;28;19921;-78
2022/01/07 12:32:41;;;;;;;;;;;;;;;1.74;100.00;99617.78;8360561;28;19921;-78
2022/01/07 12:36:54;;;;;;;;;;;;;;;1.87;100.00;99627.91;8355722;28;20294;-79
2022/01/07 12:40:57;;;;;;;;;;;;;;;1.93;100.00;99632.53;8366767;28;19920;-79
2022/01/07 12:45:01;;;;;;;;;;;;;;;1.87;100.00;99622.47;8373384;28;19925;-78
2022/01/07 12:49:04;;;;;;;;;;;;;;;1.86;100.00;99604.50;8360886;28;19927;-78
2022/01/07 12:53:06;;;;;;;;;;;;;;;1.89;100.00;99602.22;8374627;28;19920;-77
2022/01/07 12:57:08;;;;;;;;;;;;;;;1.79;100.00;99599.88;8358879;28;20640;-78
2022/01/07 13:01:21;;;;;;;;;;;;;;;1.73;100.00;99603.38;8364343;28;20313;-78
2022/01/07 13:05:25;;;;;;;;;;;;;;;1.95;100.00;99606.84;8360366;28;20428;-79
2022/01/07 13:10:00;;;;;;;;;;;;;;;2.01;100.00;99607.94;8364223;28;20289;-79
2022/01/07 13:14:06;;;;;;;;;;;;;;;2.10;100.00;99619.50;8398967;28;19932;-79
2022/01/07 13:18:26;;;;;;;;;;;;;;;2.06;100.00;99616.34;8382850;28;19971;-78
2022/01/07 13:22:28;;;;;;;;;;;;;;;2.04;100.00;99618.41;8380278;28;20389;-78
2022/01/07 13:26:34;;;;;;;;;;;;;;;2.05;100.00;99628.22;8374394;28;20436;-78
2022/01/07 13:30:38;;;;;;;;;;;;;;;2.07;100.00;99639.75;8357189;28;20285;-78
2022/01/07 13:34:40;;;;;;;;;;;;;;;2.01;100.00;99648.72;8368230;28;19928;-79
2022/01/07 13:38:43;;;;;;;;;;;;;;;2.04;100.00;99649.16;8364494;28;19929;-78
2022/01/07 13:42:45;;;;;;;;;;;;;;;2.06;100.00;99643.53;8355667;28;20297;-78
2022/01/07 13:46:54;;;;;;;;;;;;;;;2.05;100.00;99647.25;8349029;28;19982;-79
2022/01/07 13:50:55;;;;;;;;;;;;;;;1.97;100.00;99651.00;8355267;28;20373;-79
2022/01/07 13:54:57;;;;;;;;;;;;;;;1.94;100.00;99639.69;8362206;28;19928;-79
2022/01/07 13:59:02;;;;;;;;;;;;;;;1.90;100.00;99627.50;8358148;28;20435;-78
2022/01/07 14:03:04;;;;;;;;;;;;;;;1.88;100.00;99621.44;8369499;28;20035;-77
2022/01/07 14:07:25;;;;;;;;;;;;;;;2.05;100.00;99609.22;8370403;28;20011;-78
2022/01/07 14:11:29;;;;;;;;;;;;;;;1.92;100.00;99611.84;8361813;28;20011;-79
2022/01/07 14:15:42;;;;;;;;;;;;;;;2.07;100.00;99606.31;8356614;28;19928;-78
2022/01/07 14:19:56;;;;;;;;;;;;;;;1.96;100.00;99602.25;8355439;28;19929;-78
2022/01/07 14:23:57;;;;;;;;;;;;;;;2.00;100.00;99598.13;8361565;28;20389;-78
2022/01/07 14:27:59;;;;;;;;;;;;;;;1.94;100.00;99596.19;8373041;28;20403;-79
2022/01/07 14:32:01;;;;;;;;;;;;;;;2.00;100.00;99589.97;8365977;28;20289;-78
2022/01/07 14:36:03;;;;;;;;;;;;;;;2.05;100.00;99582.03;8372024;28;19921;-79
2022/01/07 14:40:05;;;;;;;;;;;;;;;1.99;100.00;99574.69;8363772;28;19928;-78
2022/01/07 14:44:06;;;;;;;;;;;;;;;2.00;100.00;99579.09;8381852;28;20270;-78
2022/01/07 14:48:29;;;;;;;;;;;;;;;2.03;100.00;99582.25;8370018;28;19951;-79
2022/01/07 14:52:35;;;;;;;;;;;;;;;2.12;100.00;99590.25;8372562;28;19928;-78
2022/01/07 14:56:37;;;;;;;;;;;;;;;2.20;100.00;99579.19;8371324;28;20347;-78
2022/01/07 15:00:40;;;;;;;;;;;;;;;2.20;100.00;99571.91;8360618;28;20007;-79
2022/01/07 15:04:43;;;;;;;;;;;;;;;2.20;100.00;99571.91;8364137;28;19921;-79
2022/01/07 15:08:44;;;;;;;;;;;;;;;2.17;100.00;99561.44;8366461;28;20675;-79
2022/01/07 15:12:50;;;;;;;;;;;;;;;2.18;100.00;99592.16;8382934;28;21197;-79
2022/01/07 15:16:51;;;;;;;;;;;;;;;2.12;100.00;99601.97;8377632;28;19943;-79
2022/01/07 15:20:55;;;;;;;;;;;;;;;2.15;100.00;99606.16;8360920;28;19925;-78
2022/01/07 15:24:57;;;;;;;;;;;;;;;2.24;100.00;99602.22;8392103;28;19967;-79
2022/01/07 15:28:58;;;;;;;;;;;;;;;2.17;100.00;99604.91;8365290;28;20011;-78
2022/01/07 15:33:00;;;;;;;;;;;;;;;2.15;100.00;99612.44;8366655;28;19967;-78
2022/01/07 15:37:01;;;;;;;;;;;;;;;2.17;100.00;99607.63;8366483;28;19924;-78
2022/01/07 15:41:04;;;;;;;;;;;;;;;2.00;100.00;99606.28;8371989;28;19925;-79
2022/01/07 15:45:06;;;;;;;;;;;;;;;1.97;100.00;99602.06;8368928;28;19925;-79
2022/01/07 15:49:07;;;;;;;;;;;;;;;1.95;100.00;99597.88;8380661;28;20035;-79
2022/01/07 15:53:09;;;;;;;;;;;;;;;1.96;100.00;99591.38;8367480;28;20335;-79
2022/01/07 15:57:10;;;;;;;;;;;;;;;1.96;100.00;99596.81;8375916;28;19928;-78
2022/01/07 16:01:17;;;;;;;;;;;;;;;1.96;100.00;99596.81;8366203;28;19927;-80
2022/01/07 16:05:19;;;;;;;;;;;;;;;1.94;100.00;99599.75;8383893;28;20043;-79
2022/01/07 16:09:24;;;;;;;;;;;;;;;1.90;100.00;99594.91;8376509;28;19924;-79
2022/01/07 16:13:26;;;;;;;;;;;;;;;1.90;100.00;99593.03;8388658;28;19925;-79
2022/01/07 16:17:33;;;;;;;;;;;;;;;1.84;100.00;99591.09;8374321;28;20019;-79
2022/01/07 16:21:36;;;;;;;;;;;;;;;1.84;100.00;99607.41;8367316;28;19925;-79
2022/01/07 16:25:39;;;;;;;;;;;;;;;1.75;100.00;99604.00;8381990;28;19920;-78
2022/01/07 16:29:40;;;;;;;;;;;;;;;1.71;100.00;99597.28;8392329;28;19924;-80
2022/01/07 16:33:43;;;;;;;;;;;;;;;1.75;100.00;99604.00;8380465;28;19924;-79
2022/01/07 16:37:44;;;;;;;;;;;;;;;1.66;100.00;99594.31;8370728;28;19978;-79
2022/01/07 16:41:46;;;;;;;;;;;;;;;1.71;100.00;99594.56;8362998;28;19921;-79
2022/01/07 16:45:47;;;;;;;;;;;;;;;1.77;100.00;99591.06;8372621;28;19921;-79
2022/01/07 16:49:49;;;;;;;;;;;;;;;1.75;100.00;99582.25;8362454;28;20027;-78
2022/01/07 16:54:02;;;;;;;;;;;;;;;1.74;100.00;99588.75;8371732;28;19928;-79
2022/01/07 16:58:04;;;;;;;;;;;;;;;1.77;100.00;99580.19;8372460;28;19928;-79
2022/01/07 17:02:06;;;;;;;;;;;;;;;1.85;100.00;99583.81;8366001;28;20362;-79
2022/01/07 17:06:07;;;;;;;;;;;;;;;1.73;100.00;99586.25;8375200;28;20305;-78
2022/01/07 17:10:09;;;;;;;;;;;;;;;1.79;100.00;99585.44;8366425;28;19955;-80
2022/01/07 17:14:11;;;;;;;;;;;;;;;1.79;100.00;99577.28;8374874;28;19924;-78
2022/01/07 17:18:13;;;;;;;;;;;;;;;1.80;100.00;99574.34;8364214;28;19925;-78
2022/01/07 17:22:14;;;;;;;;;;;;;;;1.77;100.00;99574.75;8369956;28;19990;-78
2022/01/07 17:26:20;;;;;;;;;;;;;;;1.90;100.00;99567.72;8375195;28;19985;-78
2022/01/07 17:30:24;;;;;;;;;;;;;;;1.79;100.00;99569.97;8356418;28;20348;-79
2022/01/07 17:34:25;;;;;;;;;;;;;;;1.86;100.00;99561.88;8353707;28;19924;-78
2022/01/07 17:38:27;;;;;;;;;;;;;;;1.94;100.00;99572.56;8351231;28;19920;-78
2022/01/07 17:42:31;;;;;;;;;;;;;;;2.01;100.00;99564.47;8350587;28;19929;-78
2022/01/07 17:46:36;;;;;;;;;;;;;;;2.02;100.00;99571.56;8388023;28;19921;-78
2022/01/07 17:50:37;;;;;;;;;;;;;;;2.02;100.00;99572.44;8377308;28;19959;-78
2022/01/07 17:54:39;;;;;;;;;;;;;;;2.07;100.00;99569.09;8372367;28;19924;-79
2022/01/07 17:58:41;;;;;;;;;;;;;;;2.14;100.00;99560.97;8360995;28;19931;-79
2022/01/07 18:02:43;;;;;;;;;;;;;;;2.00;100.00;99568.22;8350812;28;19943;-78
2022/01/07 18:06:45;;;;;;;;;;;;;;;2.07;100.00;99566.38;8376492;28;19935;-78
2022/01/07 18:10:49;;;;;;;;;;;;;;;2.14;100.00;99580.84;8367905;28;19924;-78
2022/01/07 18:14:50;;;;;;;;;;;;;;;2.15;100.00;99570.81;8349453;28;20332;-78
2022/01/07 18:18:52;;;;;;;;;;;;;;;2.16;100.00;99572.47;8355148;28;19959;-78
2022/01/07 18:22:53;;;;;;;;;;;;;;;2.23;100.00;99581.50;8377235;28;20447;-78
2022/01/07 18:26:55;;;;;;;;;;;;;;;2.19;100.00;99562.03;8356095;28;19929;-78
2022/01/07 18:30:56;;;;;;;;;;;;;;;2.15;100.00;99573.53;8361328;28;19974;-78
2022/01/07 18:34:58;;;;;;;;;;;;;;;2.15;100.00;99582.53;8357963;28;19921;-79
2022/01/07 18:39:00;;;;;;;;;;;;;;;2.17;100.00;99585.03;8365449;28;19921;-80
2022/01/07 18:43:01;;;;;;;;;;;;;;;2.20;100.00;99599.09;8356093;28;20008;-79
2022/01/07 18:47:07;;;;;;;;;;;;;;;2.20;100.00;99606.38;8348245;28;19985;-78
2022/01/07 18:51:11;;;;;;;;;;;;;;;2.18;100.00;99611.19;8372189;28;20010;-78
2022/01/07 18:55:12;;;;;;;;;;;;;;;2.20;100.00;99590.06;8364672;28;20365;-78
2022/01/07 18:59:15;;;;;;;;;;;;;;;2.20;100.00;99590.94;8357758;28;19928;-78
2022/01/07 19:03:19;;;;;;;;;;;;;;;2.14;100.00;99583.56;8380338;28;20271;-78
2022/01/07 19:07:23;;;;;;;;;;;;;;;2.12;100.00;99582.09;8354584;28;19925;-77
2022/01/07 19:11:26;;;;;;;;;;;;;;;2.11;100.00;99566.81;8368150;28;20373;-78
2022/01/07 19:15:28;;;;;;;;;;;;;;;2.07;100.00;99571.81;8379293;28;19974;-78
2022/01/07 19:19:29;;;;;;;;;;;;;;;2.04;100.00;99564.88;8381741;28;19958;-78
2022/01/07 19:23:31;;;;;;;;;;;;;;;1.96;100.00;99567.78;8374398;28;19975;-79
2022/01/07 19:27:33;;;;;;;;;;;;;;;2.09;100.00;99567.03;8370663;28;20057;-78
2022/01/07 19:31:34;;;;;;;;;;;;;;;2.05;100.00;99566.59;8365575;28;19974;-79
2022/01/07 19:35:36;;;;;;;;;;;;;;;2.08;100.00;99545.47;8370372;28;19924;-78
2022/01/07 19:39:38;;;;;;;;;;;;;;;2.08;100.00;99543.56;8367533;28;19925;-78
2022/01/07 19:43:40;;;;;;;;;;;;;;;1.92;100.00;99538.50;8361722;28;19935;-78
2022/01/07 19:47:42;;;;;;;;;;;;;;;1.89;100.00;99536.16;8388573;28;19924;-78
2022/01/07 19:51:44;;;;;;;;;;;;;;;1.90;100.00;99535.97;8364500;28;19925;-78
2022/01/07 19:55:46;;;;;;;;;;;;;;;1.95;100.00;99538.09;8377753;28;20004;-79
2022/01/07 19:59:47;;;;;;;;;;;;;;;1.93;100.00;99529.28;8376370;28;19925;-79
2022/01/07 20:03:48;;;;;;;;;;;;;;;2.05;100.00;99527.69;8390489;28;20050;-79
2022/01/07 20:07:50;;;;;;;;;;;;;;;2.03;100.00;99518.91;8368940;28;19921;-81
2022/01/07 20:11:52;;;;;;;;;;;;;;;2.05;100.00;99511.38;8370660;28;19934;-79
2022/01/07 20:15:54;;;;;;;;;;;;;;;1.94;100.00;99498.38;8356740;28;19954;-79
2022/01/07 20:19:55;;;;;;;;;;;;;;;2.02;100.00;99493.59;8365307;28;19924;-78
2022/01/07 20:23:58;;;;;;;;;;;;;;;1.93;100.00;99500.22;8371396;28;20286;-79
2022/01/07 20:28:00;;;;;;;;;;;;;;;1.89;100.00;99503.56;8386566;28;19928;-79
2022/01/07 20:32:01;;;;;;;;;;;;;;;1.96;100.00;99499.00;8380765;28;19989;-79
2022/01/07 20:36:02;;;;;;;;;;;;;;;1.90;100.00;99480.78;8359949;28;19935;-79
2022/01/07 20:40:04;;;;;;;;;;;;;;;1.91;100.00;99471.59;8364464;28;20015;-79
2022/01/07 20:44:07;;;;;;;;;;;;;;;1.85;100.00;99480.56;8376309;28;19925;-79
2022/01/07 20:48:08;;;;;;;;;;;;;;;1.87;100.00;99482.00;8363377;28;20369;-79
2022/01/07 20:52:10;;;;;;;;;;;;;;;1.87;100.00;99479.31;8363790;28;20429;-79
2022/01/07 20:56:12;;;;;;;;;;;;;;;1.93;100.00;99458.63;8367253;28;19920;-79
2022/01/07 21:00:15;;;;;;;;;;;;;;;1.83;100.00;99468.00;8362101;28;20502;-79
2022/01/07 21:04:22;;;;;;;;;;;;;;;1.84;100.00;99460.69;8355885;28;20043;-79
2022/01/07 21:08:25;;;;;;;;;;;;;;;1.85;100.00;99458.84;8359889;28;19920;-79
2022/01/07 21:12:30;;;;;;;;;;;;;;;1.87;100.00;99460.28;8365965;28;19959;-78
2022/01/07 21:16:32;;;;;;;;;;;;;;;1.84;100.00;99457.97;8370759;28;19985;-79